createdAt,value
2017-08-16T00:02:18.252Z,5.53
2017-08-16T00:04:45.797Z,6.17
2017-08-16T00:07:13.324Z,5.07
2017-08-16T00:09:41.649Z,7.67
2017-08-16T00:12:09.190Z,5.70
2017-08-16T00:14:36.728Z,6.20
2017-08-16T00:17:05.034Z,5.33
2017-08-16T00:19:32.562Z,5.77
2017-08-16T00:22:00.896Z,6.00
2017-08-16T00:24:28.430Z,5.87
2017-08-16T00:26:55.957Z,6.10
2017-08-16T00:29:24.272Z,5.63
2017-08-16T00:31:51.797Z,6.10
2017-08-16T00:34:20.131Z,6.00
2017-08-16T00:36:47.689Z,5.57
2017-08-16T00:39:15.234Z,5.57
2017-08-16T00:41:42.756Z,5.60
2017-08-16T00:44:11.071Z,5.33
2017-08-16T00:46:38.608Z,5.47
2017-08-16T00:49:06.154Z,5.67
2017-08-16T00:51:33.689Z,5.70
2017-08-16T00:54:01.218Z,5.90
2017-08-16T00:56:28.768Z,6.00
2017-08-16T00:58:56.313Z,6.03
2017-08-16T01:01:23.865Z,5.93
2017-08-16T01:03:51.409Z,6.30
2017-08-16T01:06:19.702Z,6.00
2017-08-16T01:08:47.267Z,7.80
2017-08-16T01:11:14.799Z,6.20
2017-08-16T01:13:43.118Z,5.50
2017-08-16T01:16:10.657Z,5.87
2017-08-16T01:18:38.222Z,7.30
2017-08-16T01:21:05.753Z,6.47
2017-08-16T01:23:34.077Z,5.80
2017-08-16T01:26:01.606Z,5.00
2017-08-16T01:28:29.134Z,6.27
2017-08-16T01:30:56.690Z,6.10
2017-08-16T01:33:24.225Z,5.63
2017-08-16T01:35:51.775Z,6.70
2017-08-16T01:38:19.297Z,6.33
2017-08-16T01:40:46.846Z,6.30
2017-08-16T01:43:14.457Z,5.53
2017-08-16T01:45:42.015Z,6.50
2017-08-16T01:48:09.558Z,5.90
2017-08-16T01:50:37.093Z,6.73
2017-08-16T01:53:05.413Z,7.03
2017-08-16T01:55:32.954Z,6.87
2017-08-16T01:58:00.493Z,6.57
2017-08-16T02:00:28.833Z,7.20
2017-08-16T02:02:56.373Z,6.63
2017-08-16T02:05:23.908Z,7.03
2017-08-16T02:07:51.462Z,7.30
2017-08-16T02:10:19.002Z,7.43
2017-08-16T02:12:47.324Z,7.17
2017-08-16T02:15:14.870Z,7.80
2017-08-16T02:17:42.401Z,7.33
2017-08-16T02:20:10.724Z,8.10
2017-08-16T02:22:38.260Z,7.30
2017-08-16T02:25:05.806Z,8.30
2017-08-16T02:27:34.114Z,8.07
2017-08-16T02:30:01.667Z,7.77
2017-08-16T02:32:29.200Z,8.03
2017-08-16T02:34:57.534Z,7.80
2017-08-16T02:37:25.090Z,9.30
2017-08-16T02:39:52.629Z,8.87
2017-08-16T02:42:20.169Z,8.07
2017-08-16T02:44:47.727Z,8.47
2017-08-16T02:47:15.300Z,9.27
2017-08-16T02:49:42.866Z,8.47
2017-08-16T02:52:10.432Z,7.60
2017-08-16T02:54:37.997Z,7.70
2017-08-16T02:57:05.525Z,8.47
2017-08-16T02:59:33.138Z,8.87
2017-08-16T03:02:00.692Z,8.70
2017-08-16T03:04:28.229Z,7.77
2017-08-16T03:06:55.897Z,9.03
2017-08-16T03:09:23.458Z,9.03
2017-08-16T03:11:51.017Z,8.60
2017-08-16T03:14:18.573Z,8.73
2017-08-16T03:16:46.109Z,8.87
2017-08-16T03:19:13.641Z,8.23
2017-08-16T03:21:41.967Z,8.27
2017-08-16T03:24:09.530Z,8.93
2017-08-16T03:26:37.092Z,11.83
2017-08-16T03:29:04.755Z,12.73
2017-08-16T03:31:32.297Z,11.37
2017-08-16T03:33:59.979Z,12.30
2017-08-16T03:36:27.516Z,11.40
2017-08-16T03:38:55.058Z,12.33
2017-08-16T03:41:23.391Z,10.27
2017-08-16T03:43:50.957Z,10.20
2017-08-16T03:46:18.529Z,11.70
2017-08-16T03:48:46.078Z,9.50
2017-08-16T03:51:13.622Z,9.97
2017-08-16T03:53:41.195Z,9.50
2017-08-16T03:56:08.764Z,10.43
2017-08-16T03:58:36.332Z,11.87
2017-08-16T04:01:03.878Z,11.93
2017-08-16T04:03:31.446Z,11.57
2017-08-16T04:05:58.991Z,10.90
2017-08-16T04:08:26.536Z,9.30
2017-08-16T04:10:54.092Z,10.33
2017-08-16T04:13:21.633Z,12.70
2017-08-16T04:15:49.174Z,11.67
2017-08-16T04:18:16.733Z,11.30
2017-08-16T04:20:45.042Z,10.97
2017-08-16T04:23:12.585Z,11.50
2017-08-16T04:25:40.150Z,11.63
2017-08-16T04:28:07.690Z,13.43
2017-08-16T04:30:35.262Z,11.67
2017-08-16T04:33:02.797Z,11.63
2017-08-16T04:35:31.108Z,11.70
2017-08-16T04:37:58.668Z,12.57
2017-08-16T04:40:26.216Z,12.57
2017-08-16T04:42:53.762Z,13.27
2017-08-16T04:45:22.085Z,12.53
2017-08-16T04:47:49.676Z,13.57
2017-08-16T04:50:17.238Z,12.80
2017-08-16T04:52:44.860Z,12.50
2017-08-16T04:55:12.404Z,11.97
2017-08-16T04:57:39.981Z,13.23
2017-08-16T05:00:07.554Z,13.37
2017-08-16T05:02:35.105Z,13.00
2017-08-16T05:05:02.660Z,12.43
2017-08-16T05:07:30.232Z,12.43
2017-08-16T05:09:57.884Z,13.23
2017-08-16T05:12:25.506Z,12.93
2017-08-16T05:14:53.833Z,11.73
2017-08-16T05:17:21.364Z,13.90
2017-08-16T05:19:48.942Z,10.87
2017-08-16T05:22:16.513Z,13.70
2017-08-16T05:24:44.075Z,12.27
2017-08-16T05:27:11.620Z,13.20
2017-08-16T05:29:39.172Z,11.30
2017-08-16T05:32:06.714Z,12.10
2017-08-16T05:34:34.273Z,12.63
2017-08-16T05:37:01.809Z,11.97
2017-08-16T05:39:30.138Z,14.80
2017-08-16T05:41:57.697Z,11.77
2017-08-16T05:44:25.270Z,13.43
2017-08-16T05:46:52.841Z,12.57
2017-08-16T05:49:20.729Z,14.37
2017-08-16T05:51:49.025Z,12.47
2017-08-16T05:54:16.580Z,11.60
2017-08-16T05:56:44.124Z,11.60
2017-08-16T05:59:12.450Z,11.27
2017-08-16T06:01:40.405Z,10.37
2017-08-16T06:04:08.803Z,9.40
2017-08-16T06:06:36.386Z,10.07
2017-08-16T06:09:03.939Z,10.30
2017-08-16T06:11:31.470Z,8.97
2017-08-16T06:13:59.013Z,8.60
2017-08-16T06:16:26.547Z,7.07
2017-08-16T06:18:54.919Z,6.37
2017-08-16T06:21:22.454Z,7.40
2017-08-16T06:23:50.026Z,7.40
2017-08-16T06:26:17.582Z,7.20
2017-08-16T06:28:45.218Z,7.73
2017-08-16T06:31:12.808Z,7.60
2017-08-16T06:33:41.121Z,6.83
2017-08-16T06:36:09.441Z,6.70
2017-08-16T06:38:36.976Z,7.10
2017-08-16T06:41:04.545Z,6.60
2017-08-16T06:43:32.076Z,6.87
2017-08-16T06:46:00.426Z,8.07
2017-08-16T06:48:28.008Z,6.97
2017-08-16T06:50:56.308Z,5.80
2017-08-16T06:53:23.836Z,4.93
2017-08-16T06:55:51.382Z,5.53
2017-08-16T06:58:18.904Z,4.50
2017-08-16T07:00:46.450Z,3.90
2017-08-16T07:03:13.978Z,4.07
2017-08-16T07:05:42.301Z,5.50
2017-08-16T07:08:09.833Z,4.20
2017-08-16T07:10:37.372Z,4.47
2017-08-16T07:13:05.694Z,3.80
2017-08-16T07:15:33.225Z,3.70
2017-08-16T07:18:01.538Z,4.07
2017-08-16T07:20:29.101Z,3.70
2017-08-16T07:22:56.629Z,4.50
2017-08-16T07:25:24.193Z,4.20
2017-08-16T07:27:51.717Z,3.60
2017-08-16T07:30:19.237Z,4.67
2017-08-16T07:32:46.774Z,4.40
2017-08-16T07:35:14.298Z,3.70
2017-08-16T07:37:41.845Z,3.30
2017-08-16T07:40:09.382Z,3.53
2017-08-16T07:42:36.939Z,3.60
2017-08-16T07:45:04.480Z,3.90
2017-08-16T07:47:32.017Z,4.73
2017-08-16T07:50:00.432Z,3.60
2017-08-16T07:52:27.953Z,3.60
2017-08-16T07:54:56.270Z,3.93
2017-08-16T07:57:23.876Z,4.17
2017-08-16T07:59:51.437Z,4.07
2017-08-16T08:02:18.964Z,3.90
2017-08-16T08:04:46.501Z,3.40
2017-08-16T08:07:14.052Z,3.47
2017-08-16T08:09:41.580Z,3.30
2017-08-16T08:12:09.160Z,3.50
2017-08-16T08:14:36.689Z,3.57
2017-08-16T08:17:04.237Z,2.90
2017-08-16T08:19:32.556Z,3.07
2017-08-16T08:22:00.094Z,2.93
2017-08-16T08:24:27.633Z,3.13
2017-08-16T08:26:55.973Z,3.17
2017-08-16T08:29:23.500Z,3.43
2017-08-16T08:31:51.048Z,2.70
2017-08-16T08:34:18.585Z,3.67
2017-08-16T08:36:46.889Z,2.93
2017-08-16T08:39:14.437Z,2.90
2017-08-16T08:41:42.734Z,2.60
2017-08-16T08:44:10.261Z,2.60
2017-08-16T08:46:38.576Z,3.90
2017-08-16T08:49:06.114Z,3.53
2017-08-16T08:51:33.652Z,2.70
2017-08-16T08:54:01.944Z,3.73
2017-08-16T08:56:30.263Z,2.70
2017-08-16T08:58:57.792Z,2.93
2017-08-16T09:01:25.325Z,2.90
2017-08-16T09:03:52.865Z,2.60
2017-08-16T09:06:20.498Z,2.70
2017-08-16T09:08:48.036Z,3.10
2017-08-16T09:11:15.580Z,3.17
2017-08-16T09:13:43.890Z,3.10
2017-08-16T09:16:11.437Z,2.87
2017-08-16T09:18:38.972Z,2.50
2017-08-16T09:21:07.267Z,2.47
2017-08-16T09:23:34.829Z,2.60
2017-08-16T09:26:02.352Z,3.23
2017-08-16T09:28:29.901Z,2.57
2017-08-16T09:30:57.433Z,3.30
2017-08-16T09:33:24.991Z,2.50
2017-08-16T09:35:52.516Z,3.20
2017-08-16T09:38:20.057Z,3.00
2017-08-16T09:40:48.388Z,2.70
2017-08-16T09:43:15.916Z,3.37
2017-08-16T09:45:43.472Z,3.00
2017-08-16T09:48:11.032Z,2.80
2017-08-16T09:50:39.321Z,2.50
2017-08-16T09:53:06.849Z,3.00
2017-08-16T09:55:35.169Z,3.60
2017-08-16T09:58:02.702Z,3.10
2017-08-16T10:00:30.278Z,2.50
2017-08-16T10:02:57.828Z,2.80
2017-08-16T10:05:25.362Z,3.37
2017-08-16T10:07:52.885Z,2.67
2017-08-16T10:10:20.536Z,3.20
2017-08-16T10:12:48.061Z,3.40
2017-08-16T10:15:16.353Z,3.10
2017-08-16T10:17:43.894Z,3.63
2017-08-16T10:20:12.193Z,3.13
2017-08-16T10:22:39.733Z,3.33
2017-08-16T10:25:08.047Z,2.90
2017-08-16T10:27:35.582Z,3.00
2017-08-16T10:30:03.128Z,3.10
2017-08-16T10:32:31.422Z,2.80
2017-08-16T10:34:58.950Z,2.87
2017-08-16T10:37:27.265Z,3.13
2017-08-16T10:39:54.814Z,2.90
2017-08-16T10:42:22.358Z,2.93
2017-08-16T10:44:50.677Z,3.13
2017-08-16T10:47:18.211Z,4.37
2017-08-16T10:49:45.781Z,3.70
2017-08-16T10:52:13.313Z,2.60
2017-08-16T10:54:41.626Z,3.33
2017-08-16T10:57:09.178Z,3.80
2017-08-16T10:59:36.737Z,4.10
2017-08-16T11:02:04.271Z,3.03
2017-08-16T11:04:32.563Z,3.07
2017-08-16T11:07:00.112Z,2.90
2017-08-16T11:09:27.672Z,3.60
2017-08-16T11:11:56.007Z,3.40
2017-08-16T11:14:23.539Z,3.60
2017-08-16T11:16:51.068Z,3.00
2017-08-16T11:19:18.664Z,2.70
2017-08-16T11:21:46.189Z,3.47
2017-08-16T11:24:13.723Z,3.30
2017-08-16T11:26:41.278Z,4.07
2017-08-16T11:29:08.800Z,3.80
2017-08-16T11:31:36.357Z,3.70
2017-08-16T11:34:03.878Z,3.13
2017-08-16T11:36:32.196Z,3.50
2017-08-16T11:38:59.723Z,3.30
2017-08-16T11:41:28.036Z,3.33
2017-08-16T11:43:55.558Z,3.40
2017-08-16T11:46:23.853Z,3.47
2017-08-16T11:48:51.419Z,2.93
2017-08-16T11:51:18.969Z,3.33
2017-08-16T11:53:46.502Z,3.60
2017-08-16T11:56:14.812Z,3.40
2017-08-16T11:58:42.351Z,3.47
2017-08-16T12:01:10.677Z,4.20
2017-08-16T12:03:38.205Z,3.47
2017-08-16T12:06:05.769Z,3.50
2017-08-16T12:08:33.297Z,3.63
2017-08-16T12:11:01.610Z,3.03
2017-08-16T12:13:29.183Z,3.20
2017-08-16T12:15:56.706Z,3.60
2017-08-16T12:18:25.000Z,4.23
2017-08-16T12:20:52.564Z,2.90
2017-08-16T12:23:20.096Z,3.13
2017-08-16T12:25:48.414Z,3.00
2017-08-16T12:28:15.973Z,3.37
2017-08-16T12:30:43.534Z,3.30
2017-08-16T12:33:11.058Z,2.70
2017-08-16T12:35:38.600Z,2.70
2017-08-16T12:38:06.145Z,3.37
2017-08-16T12:40:33.669Z,3.20
2017-08-16T12:43:01.233Z,3.60
2017-08-16T12:45:28.781Z,2.40
2017-08-16T12:47:56.309Z,3.73
2017-08-16T12:50:24.627Z,3.37
2017-08-16T12:52:52.157Z,5.50
2017-08-16T12:55:20.456Z,5.70
2017-08-16T12:57:48.029Z,4.17
2017-08-16T13:00:15.589Z,3.27
2017-08-16T13:02:43.142Z,3.90
2017-08-16T13:05:10.690Z,3.80
2017-08-16T13:07:38.241Z,3.53
2017-08-16T13:10:05.773Z,2.73
2017-08-16T13:12:33.294Z,3.57
2017-08-16T13:15:00.853Z,3.60
2017-08-16T13:17:28.378Z,3.47
2017-08-16T13:19:55.920Z,3.40
2017-08-16T13:22:24.251Z,2.67
2017-08-16T13:24:51.810Z,3.37
2017-08-16T13:27:19.870Z,2.93
2017-08-16T13:29:47.394Z,3.60
2017-08-16T13:32:15.737Z,3.80
2017-08-16T13:34:43.269Z,3.30
2017-08-16T13:37:10.824Z,3.10
2017-08-16T13:39:38.358Z,3.00
2017-08-16T13:42:05.911Z,3.80
2017-08-16T13:44:33.481Z,3.13
2017-08-16T13:47:01.021Z,3.23
2017-08-16T13:49:29.313Z,3.83
2017-08-16T13:51:57.631Z,3.80
2017-08-16T13:54:25.169Z,4.17
2017-08-16T13:56:52.746Z,4.27
2017-08-16T13:59:20.277Z,3.80
2017-08-16T14:01:47.828Z,4.77
2017-08-16T14:04:15.372Z,3.77
2017-08-16T14:06:43.681Z,3.13
2017-08-16T14:09:11.222Z,2.70
2017-08-16T14:11:38.757Z,4.10
2017-08-16T14:14:06.298Z,4.37
2017-08-16T14:16:33.826Z,3.53
2017-08-16T14:19:01.373Z,3.67
2017-08-16T14:21:28.926Z,3.27
2017-08-16T14:23:56.455Z,3.83
2017-08-16T14:26:24.784Z,3.40
2017-08-16T14:28:52.349Z,4.13
2017-08-16T14:31:19.868Z,3.40
2017-08-16T14:33:48.184Z,3.50
2017-08-16T14:36:15.729Z,3.53
2017-08-16T14:38:43.281Z,3.17
2017-08-16T14:41:10.840Z,3.73
2017-08-16T14:43:38.376Z,3.80
2017-08-16T14:46:06.686Z,3.37
2017-08-16T14:48:34.213Z,3.70
2017-08-16T14:51:02.533Z,4.17
2017-08-16T14:53:30.097Z,3.67
2017-08-16T14:55:57.647Z,4.13
2017-08-16T14:58:25.205Z,3.70
2017-08-16T15:00:52.761Z,4.10
2017-08-16T15:03:20.321Z,3.77
2017-08-16T15:05:47.888Z,4.10
2017-08-16T15:08:15.425Z,4.17
2017-08-16T15:10:43.732Z,4.70
2017-08-16T15:13:11.253Z,3.77
2017-08-16T15:15:39.560Z,5.13
2017-08-16T15:18:07.117Z,4.30
2017-08-16T15:20:34.643Z,5.10
2017-08-16T15:23:02.169Z,4.93
2017-08-16T15:25:29.717Z,4.60
2017-08-16T15:27:57.230Z,4.20
2017-08-16T15:30:25.532Z,4.73
2017-08-16T15:32:53.088Z,5.30
2017-08-16T15:35:20.613Z,4.07
2017-08-16T15:37:48.935Z,4.53
2017-08-16T15:40:16.457Z,4.50
2017-08-16T15:42:44.752Z,4.37
2017-08-16T15:45:12.320Z,4.43
2017-08-16T15:47:39.845Z,4.70
2017-08-16T15:50:07.397Z,4.47
2017-08-16T15:52:34.933Z,4.10
2017-08-16T15:55:02.485Z,4.37
2017-08-16T15:57:30.021Z,5.00
2017-08-16T15:59:57.561Z,4.80
2017-08-16T16:02:25.885Z,5.03
2017-08-16T16:04:53.440Z,4.50
2017-08-16T16:07:20.995Z,4.30
2017-08-16T16:09:48.533Z,4.47
2017-08-16T16:12:16.120Z,4.53
2017-08-16T16:14:43.645Z,4.60
2017-08-16T16:17:11.181Z,4.83
2017-08-16T16:19:39.510Z,5.00
2017-08-16T16:22:07.053Z,4.67
2017-08-16T16:24:34.610Z,4.10
2017-08-16T16:27:02.160Z,4.40
2017-08-16T16:29:29.690Z,4.40
2017-08-16T16:31:57.262Z,4.70
2017-08-16T16:34:25.584Z,5.03
2017-08-16T16:36:53.125Z,3.50
2017-08-16T16:39:20.705Z,4.20
2017-08-16T16:41:48.252Z,4.23
2017-08-16T16:44:15.785Z,3.70
2017-08-16T16:46:44.192Z,4.47
2017-08-16T16:49:11.748Z,4.30
2017-08-16T16:51:39.285Z,4.57
2017-08-16T16:54:07.621Z,3.63
2017-08-16T16:56:35.153Z,3.40
2017-08-16T16:59:02.720Z,3.80
2017-08-16T17:01:30.245Z,3.47
2017-08-16T17:03:58.533Z,3.80
2017-08-16T17:06:26.081Z,4.10
2017-08-16T17:08:54.389Z,4.37
2017-08-16T17:11:21.936Z,4.10
2017-08-16T17:13:49.457Z,4.70
2017-08-16T17:16:16.999Z,3.73
2017-08-16T17:18:44.530Z,4.53
2017-08-16T17:21:12.073Z,3.60
2017-08-16T17:23:39.593Z,4.07
2017-08-16T17:26:07.127Z,4.10
2017-08-16T17:28:34.685Z,4.20
2017-08-16T17:31:02.214Z,4.17
2017-08-16T17:33:29.749Z,3.70
2017-08-16T17:35:58.095Z,4.07
2017-08-16T17:38:25.637Z,4.63
2017-08-16T17:40:53.218Z,4.23
2017-08-16T17:43:20.797Z,4.10
2017-08-16T17:45:49.098Z,3.90
2017-08-16T17:48:16.664Z,3.83
2017-08-16T17:50:44.197Z,4.47
2017-08-16T17:53:12.536Z,4.40
2017-08-16T17:55:40.067Z,4.03
2017-08-16T17:58:07.614Z,4.70
2017-08-16T18:00:35.156Z,4.40
2017-08-16T18:03:03.473Z,4.13
2017-08-16T18:05:31.049Z,4.40
2017-08-16T18:07:58.597Z,4.33
2017-08-16T18:10:26.140Z,4.60
2017-08-16T18:12:53.688Z,4.90
2017-08-16T18:15:21.225Z,5.10
2017-08-16T18:17:49.542Z,4.63
2017-08-16T18:20:17.093Z,4.33
2017-08-16T18:22:44.674Z,4.33
2017-08-16T18:25:12.213Z,4.40
2017-08-16T18:27:39.749Z,4.60
2017-08-16T18:30:08.074Z,4.37
2017-08-16T18:32:35.613Z,4.67
2017-08-16T18:35:03.176Z,4.20
2017-08-16T18:37:30.708Z,4.50
2017-08-16T18:39:59.026Z,4.87
2017-08-16T18:42:26.582Z,4.13
2017-08-16T18:44:54.113Z,4.40
2017-08-16T18:47:22.693Z,4.80
2017-08-16T18:49:51.013Z,5.10
2017-08-16T18:52:18.568Z,4.70
2017-08-16T18:54:46.109Z,4.90
2017-08-16T18:57:13.675Z,4.50
2017-08-16T18:59:41.218Z,4.30
2017-08-16T19:02:08.765Z,4.97
2017-08-16T19:04:37.083Z,5.50
2017-08-16T19:07:04.625Z,5.00
2017-08-16T19:09:32.173Z,4.63
2017-08-16T19:11:59.731Z,5.83
2017-08-16T19:14:27.281Z,5.60
2017-08-16T19:16:55.609Z,5.10
2017-08-16T19:19:23.173Z,5.20
2017-08-16T19:21:50.793Z,5.00
2017-08-16T19:24:18.352Z,4.73
2017-08-16T19:26:45.891Z,4.17
2017-08-16T19:29:14.221Z,4.90
2017-08-16T19:31:41.775Z,4.93
2017-08-16T19:34:09.338Z,5.80
2017-08-16T19:36:36.865Z,5.03
2017-08-16T19:39:04.438Z,5.70
2017-08-16T19:41:31.969Z,5.60
2017-08-16T19:44:00.522Z,6.13
2017-08-16T19:46:28.089Z,5.50
2017-08-16T19:48:55.626Z,5.47
2017-08-16T19:51:23.164Z,5.80
2017-08-16T19:53:50.716Z,5.47
2017-08-16T19:56:18.298Z,6.13
2017-08-16T19:58:45.868Z,5.10
2017-08-16T20:01:13.426Z,6.00
2017-08-16T20:03:41.001Z,5.73
2017-08-16T20:06:08.545Z,5.77
2017-08-16T20:08:36.116Z,6.03
2017-08-16T20:11:03.650Z,10.60
2017-08-16T20:13:31.214Z,8.07
2017-08-16T20:15:58.764Z,7.20
2017-08-16T20:18:26.326Z,7.73
2017-08-16T20:20:53.897Z,8.70
2017-08-16T20:23:21.561Z,9.10
2017-08-16T20:25:49.122Z,11.93
2017-08-16T20:28:16.686Z,9.57
2017-08-16T20:30:44.229Z,10.00
2017-08-16T20:33:11.817Z,7.30
2017-08-16T20:35:39.357Z,8.90
2017-08-16T20:38:06.910Z,7.60
2017-08-16T20:40:34.451Z,8.23
2017-08-16T20:43:02.010Z,8.03
2017-08-16T20:45:29.542Z,6.73
2017-08-16T20:47:57.977Z,7.40
2017-08-16T20:50:25.538Z,6.87
2017-08-16T20:52:53.099Z,7.37
2017-08-16T20:55:20.659Z,7.00
2017-08-16T20:57:48.245Z,7.50
2017-08-16T21:00:15.821Z,7.57
2017-08-16T21:02:43.368Z,7.23
2017-08-16T21:05:10.906Z,8.10
2017-08-16T21:07:38.496Z,6.77
2017-08-16T21:10:06.798Z,6.90
2017-08-16T21:12:34.344Z,8.87
2017-08-16T21:15:02.651Z,8.67
2017-08-16T21:17:30.207Z,8.13
2017-08-16T21:19:57.794Z,7.60
2017-08-16T21:22:25.329Z,7.20
2017-08-16T21:24:52.913Z,7.30
2017-08-16T21:27:20.476Z,7.60
2017-08-16T21:29:48.012Z,7.60
2017-08-16T21:32:15.558Z,8.50
2017-08-16T21:34:43.121Z,8.00
2017-08-16T21:37:10.649Z,7.97
2017-08-16T21:39:38.984Z,8.37
2017-08-16T21:42:06.537Z,7.73
2017-08-16T21:44:34.076Z,6.90
2017-08-16T21:47:01.629Z,8.13
2017-08-16T21:49:29.176Z,7.97
2017-08-16T21:51:57.485Z,7.47
2017-08-16T21:54:25.026Z,7.20
2017-08-16T21:56:52.558Z,7.87
2017-08-16T21:59:20.108Z,7.63
2017-08-16T22:01:47.648Z,8.50
2017-08-16T22:04:15.205Z,8.03
2017-08-16T22:06:42.750Z,8.43
2017-08-16T22:09:10.275Z,8.23
2017-08-16T22:11:38.621Z,8.37
2017-08-16T22:14:07.022Z,9.23
2017-08-16T22:16:35.329Z,8.07
2017-08-16T22:19:02.880Z,8.67
2017-08-16T22:21:30.440Z,9.53
2017-08-16T22:23:58.024Z,8.07
2017-08-16T22:26:25.558Z,8.70
2017-08-16T22:28:53.097Z,8.57
2017-08-16T22:31:21.405Z,8.33
2017-08-16T22:33:48.946Z,9.30
2017-08-16T22:36:17.278Z,9.83
2017-08-16T22:38:44.819Z,8.33
2017-08-16T22:41:12.386Z,9.20
2017-08-16T22:43:39.925Z,10.50
2017-08-16T22:46:07.469Z,9.50
2017-08-16T22:48:35.060Z,9.40
2017-08-16T22:51:02.630Z,10.67
2017-08-16T22:53:30.158Z,9.57
2017-08-16T22:55:57.700Z,10.40
2017-08-16T22:58:25.254Z,9.03
2017-08-16T23:00:53.541Z,8.20
2017-08-16T23:03:21.881Z,9.17
2017-08-16T23:05:49.459Z,8.50
2017-08-16T23:08:17.801Z,10.30
2017-08-16T23:10:45.370Z,9.70
2017-08-16T23:13:13.017Z,8.73
2017-08-16T23:15:40.572Z,9.40
2017-08-16T23:18:08.247Z,9.03
2017-08-16T23:20:35.801Z,8.60
2017-08-16T23:23:03.371Z,9.80
2017-08-16T23:25:30.910Z,9.60
2017-08-16T23:27:58.461Z,9.97
2017-08-16T23:30:26.020Z,11.40
2017-08-16T23:32:53.566Z,9.00
2017-08-16T23:35:21.102Z,9.40
2017-08-16T23:37:49.453Z,11.50
2017-08-16T23:40:17.784Z,10.30
2017-08-16T23:42:45.342Z,9.70
2017-08-16T23:45:13.128Z,9.60
2017-08-16T23:47:40.654Z,9.63
2017-08-16T23:50:08.998Z,10.90
2017-08-16T23:52:36.543Z,10.87
2017-08-16T23:55:04.117Z,10.80
2017-08-16T23:57:31.654Z,10.70
2017-08-16T23:59:59.193Z,10.67
